Time;durP1;ratioP1;P1;durP2;ratioP2;P2;SDS_P1;SDS_P2;PMS_P1;PMS_P2;Temp;Humidity;BMP_temperature;BMP_pressure;BME280_temperature;BME280_humidity;BME280_pressure;Samples;Min_cycle;Max_cycle;Signal;HPM_P1;HPM_P2
2023/03/16 00:01:18;;;;;;;3.47;2.25;;;20.80;28.50;;;;;;5055322;28;20047;-57
2023/03/16 00:03:44;;;;;;;3.75;2.35;;;20.80;28.50;;;;;;5052372;28;20463;-56
2023/03/16 00:06:10;;;;;;;3.05;1.88;;;20.80;28.50;;;;;;5052353;28;20432;-50
2023/03/16 00:08:37;;;;;;;3.15;1.73;;;20.80;28.50;;;;;;5054413;28;20028;-53
2023/03/16 00:11:03;;;;;;;5.18;1.83;;;20.80;28.50;;;;;;5055174;28;20480;-54
2023/03/16 00:13:29;;;;;;;2.92;1.60;;;20.80;28.40;;;;;;5054150;28;20470;-55
2023/03/16 00:16:03;;;;;;;3.65;2.05;;;20.80;28.40;;;;;;5055161;28;20045;-56
2023/03/16 00:18:30;;;;;;;4.23;1.90;;;20.80;28.40;;;;;;5053819;28;20045;-57
2023/03/16 00:20:58;;;;;;;2.97;1.80;;;20.80;28.50;;;;;;5055132;28;20084;-57
2023/03/16 00:23:27;;;;;;;2.22;1.50;;;20.70;28.40;;;;;;5055529;28;20033;-56
2023/03/16 00:25:55;;;;;;;2.58;1.50;;;20.70;28.40;;;;;;5055047;28;20028;-54
2023/03/16 00:28:21;;;;;;;2.13;1.55;;;20.70;28.50;;;;;;5054789;28;20120;-56
2023/03/16 00:30:47;;;;;;;3.75;2.10;;;20.70;28.50;;;;;;5050882;28;20395;-57
2023/03/16 00:33:14;;;;;;;3.42;1.67;;;20.70;28.50;;;;;;5053295;28;20033;-57
2023/03/16 00:35:49;;;;;;;2.85;1.52;;;20.70;28.50;;;;;;5054129;28;20028;-57
2023/03/16 00:38:18;;;;;;;3.70;1.70;;;20.70;28.40;;;;;;5052645;28;20021;-57
2023/03/16 00:40:45;;;;;;;2.95;1.33;;;20.70;28.40;;;;;;5054925;28;20128;-58
2023/03/16 00:43:17;;;;;;;3.15;1.45;;;20.70;28.40;;;;;;5052608;28;20341;-58
2023/03/16 00:45:44;;;;;;;3.33;1.60;;;20.70;28.40;;;;;;5050882;28;20029;-54
2023/03/16 00:48:10;;;;;;;2.35;1.52;;;20.70;28.50;;;;;;5054294;28;20103;-54
2023/03/16 00:50:37;;;;;;;2.35;1.50;;;20.70;28.50;;;;;;5050408;28;20037;-57
2023/03/16 00:53:02;;;;;;;2.45;1.40;;;20.70;28.50;;;;;;5054322;28;20083;-57
2023/03/16 00:55:28;;;;;;;3.45;1.80;;;20.70;28.50;;;;;;5051806;28;20028;-58
2023/03/16 00:57:54;;;;;;;2.60;1.77;;;20.60;28.40;;;;;;5054788;28;20352;-56
2023/03/16 01:00:21;;;;;;;2.40;1.42;;;20.60;28.50;;;;;;5054734;28;20063;-53
2023/03/16 01:02:47;;;;;;;2.58;1.60;;;20.60;28.50;;;;;;5053196;28;20024;-54
2023/03/16 01:05:14;;;;;;;4.30;1.65;;;20.60;28.50;;;;;;5054473;28;20021;-55
2023/03/16 01:07:41;;;;;;;1.63;1.20;;;20.60;28.50;;;;;;5050439;28;20021;-56
2023/03/16 01:10:08;;;;;;;2.38;1.50;;;20.60;28.50;;;;;;5054546;28;20104;-54
2023/03/16 01:12:35;;;;;;;2.35;1.38;;;20.60;28.50;;;;;;5054440;28;20053;-57
2023/03/16 01:15:01;;;;;;;2.28;1.67;;;20.60;28.50;;;;;;5053791;28;20049;-57
2023/03/16 01:17:26;;;;;;;2.80;1.30;;;20.60;28.50;;;;;;5051939;28;20037;-56
2023/03/16 01:19:52;;;;;;;2.08;1.25;;;20.60;28.50;;;;;;5055860;28;20109;-55
2023/03/16 01:22:20;;;;;;;1.88;1.20;;;20.60;28.60;;;;;;5052996;28;20033;-54
2023/03/16 01:24:46;;;;;;;1.83;1.17;;;20.60;28.60;;;;;;5053315;28;20456;-55
2023/03/16 01:27:13;;;;;;;1.90;1.30;;;20.60;28.60;;;;;;5054349;28;20017;-58
2023/03/16 01:29:42;;;;;;;3.20;1.38;;;20.60;28.60;;;;;;5049129;28;20059;-53
2023/03/16 01:32:09;;;;;;;1.25;0.90;;;20.60;28.60;;;;;;5051783;28;20098;-56
2023/03/16 01:34:35;;;;;;;1.73;1.05;;;20.50;28.60;;;;;;5051899;28;20441;-55
2023/03/16 01:37:02;;;;;;;3.03;1.30;;;20.60;28.60;;;;;;5052707;28;20054;-55
2023/03/16 01:39:43;;;;;;;2.05;1.10;;;20.60;28.60;;;;;;5050862;28;20072;-52
2023/03/16 01:42:09;;;;;;;1.48;0.85;;;20.50;28.60;;;;;;5053005;28;20369;-54
2023/03/16 01:44:54;;;;;;;2.03;1.17;;;20.50;28.60;;;;;;5052005;28;20448;-56
2023/03/16 01:47:22;;;;;;;1.92;1.23;;;20.50;28.60;;;;;;5051205;28;20032;-56
2023/03/16 01:49:53;;;;;;;1.70;1.05;;;20.50;28.60;;;;;;5052337;28;20021;-54
2023/03/16 01:52:26;;;;;;;2.03;1.10;;;20.50;28.70;;;;;;5075429;28;20520;-55
2023/03/16 01:54:59;;;;;;;2.00;1.00;;;20.50;28.70;;;;;;5051586;28;20352;-54
2023/03/16 01:57:37;;;;;;;2.53;1.10;;;20.50;28.70;;;;;;5051517;28;20476;-56
2023/03/16 02:00:22;;;;;;;1.50;0.90;;;20.50;28.70;;;;;;5052378;28;20029;-57
2023/03/16 02:03:17;;;;;;;1.80;1.10;;;20.50;29.20;;;;;;5046301;28;20502;-54
2023/03/16 02:05:59;;;;;;;2.28;1.17;;;20.50;28.70;;;;;;5051504;28;20398;-56
2023/03/16 02:08:28;;;;;;;2.75;1.00;;;20.50;28.80;;;;;;5051383;28;20337;-56
2023/03/16 02:10:57;;;;;;;2.30;1.13;;;20.50;28.80;;;;;;5052977;28;20112;-56
2023/03/16 02:13:35;;;;;;;1.85;0.95;;;20.50;28.80;;;;;;5052629;28;20094;-57
2023/03/16 02:16:07;;;;;;;1.05;0.90;;;20.50;28.90;;;;;;5050627;28;20044;-55
2023/03/16 02:18:34;;;;;;;1.48;0.88;;;20.50;28.90;;;;;;5050722;28;20020;-56
2023/03/16 02:21:03;;;;;;;2.42;1.02;;;20.50;28.90;;;;;;5025489;28;20025;-53
2023/03/16 02:23:31;;;;;;;1.42;1.08;;;20.50;28.90;;;;;;5039376;28;20121;-51
2023/03/16 02:26:12;;;;;;;1.27;0.90;;;20.40;28.80;;;;;;5051551;28;20025;-53
2023/03/16 02:29:40;;;;;;;1.73;1.00;;;20.40;28.80;;;;;;5049302;28;20040;-52
2023/03/16 02:32:07;;;;;;;1.23;0.77;;;20.40;28.80;;;;;;5029732;28;20070;-54
2023/03/16 02:34:34;;;;;;;2.25;0.90;;;20.40;28.90;;;;;;5053269;28;20021;-54
2023/03/16 02:37:01;;;;;;;1.63;0.80;;;20.40;28.90;;;;;;5049289;28;20400;-51
2023/03/16 02:39:27;;;;;;;2.90;0.98;;;20.40;28.90;;;;;;5051412;28;20017;-55
2023/03/16 02:41:53;;;;;;;1.85;0.90;;;20.40;28.90;;;;;;5051152;28;20067;-52
2023/03/16 02:44:25;;;;;;;1.02;0.90;;;20.40;28.90;;;;;;5051902;28;20025;-56
2023/03/16 02:46:58;;;;;;;1.35;0.80;;;20.40;28.90;;;;;;5049236;28;20025;-58
2023/03/16 02:49:31;;;;;;;2.17;1.20;;;20.40;28.90;;;;;;5051846;28;20087;-56
2023/03/16 02:51:57;;;;;;;1.23;0.75;;;20.40;28.90;;;;;;5047881;28;20049;-59
2023/03/16 02:54:25;;;;;;;1.88;1.08;;;20.40;29.00;;;;;;5050600;28;20455;-56
2023/03/16 02:56:51;;;;;;;1.77;1.00;;;20.40;29.00;;;;;;5051461;28;20090;-56
2023/03/16 02:59:18;;;;;;;1.50;0.80;;;20.40;29.00;;;;;;5048909;28;20014;-57
2023/03/16 03:01:43;;;;;;;1.55;1.00;;;20.40;29.00;;;;;;5051926;28;20075;-53
2023/03/16 03:04:09;;;;;;;1.67;0.85;;;20.40;29.00;;;;;;5051684;28;20409;-57
2023/03/16 03:06:35;;;;;;;1.40;0.90;;;20.40;29.00;;;;;;5052582;28;20041;-55
2023/03/16 03:09:02;;;;;;;1.25;0.65;;;20.40;29.00;;;;;;5053212;28;20040;-57
2023/03/16 03:11:29;;;;;;;1.17;0.90;;;20.40;29.00;;;;;;5048490;28;20037;-56
2023/03/16 03:13:55;;;;;;;2.03;1.02;;;20.40;29.00;;;;;;5053285;28;20029;-56
2023/03/16 03:16:23;;;;;;;1.77;0.90;;;20.40;29.00;;;;;;5055137;28;20048;-54
2023/03/16 03:18:51;;;;;;;2.22;1.20;;;20.40;29.00;;;;;;5056245;28;20029;-54
2023/03/16 03:21:17;;;;;;;1.35;0.90;;;20.40;29.00;;;;;;5054667;28;20043;-57
2023/03/16 03:23:45;;;;;;;2.40;0.88;;;20.40;29.10;;;;;;5054700;28;20403;-57
2023/03/16 03:26:14;;;;;;;1.48;0.95;;;20.40;29.10;;;;;;5055237;28;20029;-55
2023/03/16 03:28:41;;;;;;;1.40;1.00;;;20.40;29.10;;;;;;5082604;28;20025;-58
2023/03/16 03:31:15;;;;;;;2.47;0.98;;;20.40;29.10;;;;;;5055191;28;20036;-53
2023/03/16 03:33:41;;;;;;;2.95;0.90;;;20.30;29.10;;;;;;5054406;28;20436;-54
2023/03/16 03:36:07;;;;;;;1.40;1.08;;;20.30;29.10;;;;;;5054992;28;20029;-56
2023/03/16 03:38:35;;;;;;;1.80;1.00;;;20.30;29.10;;;;;;5054983;28;20079;-56
2023/03/16 03:41:01;;;;;;;1.50;0.70;;;20.30;29.10;;;;;;5054811;28;20045;-52
2023/03/16 03:43:31;;;;;;;2.13;1.10;;;20.30;29.10;;;;;;5053751;28;20057;-54
2023/03/16 03:45:59;;;;;;;1.48;0.80;;;20.30;29.10;;;;;;5053154;28;20028;-57
2023/03/16 03:48:26;;;;;;;1.63;0.93;;;20.30;29.10;;;;;;5054807;28;20102;-55
2023/03/16 03:50:52;;;;;;;1.65;0.80;;;20.30;29.10;;;;;;5054489;28;20411;-53
2023/03/16 03:53:38;;;;;;;1.73;0.85;;;20.30;29.10;;;;;;5048381;28;20068;-55
2023/03/16 03:56:19;;;;;;;2.22;1.00;;;20.30;29.10;;;;;;5054276;28;20033;-57
2023/03/16 03:58:45;;;;;;;2.05;1.00;;;20.30;29.10;;;;;;5055465;28;20053;-57
2023/03/16 04:01:15;;;;;;;1.52;0.80;;;20.30;29.20;;;;;;5053475;28;20029;-58
2023/03/16 04:03:41;;;;;;;1.08;0.70;;;20.30;29.20;;;;;;5052901;28;20021;-53
2023/03/16 04:06:08;;;;;;;1.20;0.88;;;20.30;29.20;;;;;;5054101;28;20112;-51
2023/03/16 04:08:34;;;;;;;2.10;0.93;;;20.30;29.20;;;;;;5052880;28;20032;-58
2023/03/16 04:11:01;;;;;;;1.20;0.70;;;20.30;29.30;;;;;;5054596;28;20029;-55
2023/03/16 04:13:27;;;;;;;2.28;0.90;;;20.30;29.30;;;;;;5036675;28;20025;-57
2023/03/16 04:16:03;;;;;;;1.77;0.95;;;20.20;29.30;;;;;;5054083;28;20044;-54
2023/03/16 04:18:37;;;;;;;1.20;0.77;;;20.30;29.30;;;;;;5053163;28;20029;-55
2023/03/16 04:21:05;;;;;;;1.95;0.90;;;20.30;29.30;;;;;;5053343;28;20033;-54
2023/03/16 04:23:32;;;;;;;1.33;0.82;;;20.30;29.30;;;;;;5051008;28;20040;-55
2023/03/16 04:26:00;;;;;;;1.48;0.90;;;20.30;29.40;;;;;;5053084;28;20086;-57
2023/03/16 04:28:26;;;;;;;1.45;0.82;;;20.20;29.30;;;;;;5053834;28;20036;-55
2023/03/16 04:30:55;;;;;;;1.70;0.90;;;20.20;29.30;;;;;;5055068;28;20060;-55
2023/03/16 04:33:31;;;;;;;1.75;1.10;;;20.20;29.30;;;;;;5052248;28;20123;-59
2023/03/16 04:35:57;;;;;;;1.48;0.80;;;20.20;29.40;;;;;;5053132;28;20051;-56
2023/03/16 04:38:24;;;;;;;1.80;1.13;;;20.20;29.40;;;;;;5054074;28;20480;-55
2023/03/16 04:40:55;;;;;;;2.05;0.80;;;20.20;29.40;;;;;;5053889;28;20021;-55
2023/03/16 04:43:26;;;;;;;1.85;0.90;;;20.20;29.40;;;;;;5050390;28;20031;-55
2023/03/16 04:45:58;;;;;;;0.85;0.60;;;20.20;29.40;;;;;;5053860;28;20021;-56
2023/03/16 04:48:29;;;;;;;2.05;0.90;;;20.20;29.40;;;;;;5053904;28;20455;-56
2023/03/16 04:50:55;;;;;;;2.05;0.90;;;20.20;29.40;;;;;;5053093;28;20029;-58
2023/03/16 04:53:22;;;;;;;1.25;0.80;;;20.20;29.40;;;;;;5052350;28;20035;-54
2023/03/16 04:55:54;;;;;;;1.45;0.88;;;20.20;29.40;;;;;;5053663;28;20491;-57
2023/03/16 04:58:21;;;;;;;1.08;0.80;;;20.20;29.50;;;;;;5054557;28;20021;-56
2023/03/16 05:00:51;;;;;;;1.30;0.80;;;20.20;29.40;;;;;;5053515;28;20028;-57
2023/03/16 05:03:22;;;;;;;1.65;0.70;;;20.20;29.50;;;;;;5034744;28;20048;-58
2023/03/16 05:05:48;;;;;;;2.88;0.88;;;20.20;29.50;;;;;;5052779;28;20021;-55
2023/03/16 05:08:15;;;;;;;1.45;1.00;;;20.20;29.60;;;;;;5053087;28;20364;-56
2023/03/16 05:10:46;;;;;;;2.17;0.85;;;20.20;29.60;;;;;;5053179;28;20091;-53
2023/03/16 05:13:12;;;;;;;1.77;0.80;;;20.20;29.60;;;;;;5051592;28;20082;-56
2023/03/16 05:15:38;;;;;;;1.40;0.75;;;20.20;29.60;;;;;;5053848;28;20052;-54
2023/03/16 05:18:15;;;;;;;0.85;0.68;;;20.20;29.60;;;;;;5050475;28;20025;-57
2023/03/16 05:20:41;;;;;;;0.93;0.55;;;20.20;29.60;;;;;;5053093;28;20025;-55
2023/03/16 05:23:07;;;;;;;1.77;0.90;;;20.20;29.60;;;;;;5052295;28;20119;-56
2023/03/16 05:25:40;;;;;;;2.05;0.77;;;20.20;29.60;;;;;;5053013;28;20029;-58
2023/03/16 05:28:08;;;;;;;2.92;0.90;;;20.20;29.60;;;;;;5052850;28;20075;-54
2023/03/16 05:30:44;;;;;;;1.75;0.85;;;20.20;29.60;;;;;;5052621;28;20052;-54
2023/03/16 05:33:13;;;;;;;2.70;0.70;;;20.10;29.50;;;;;;5051156;28;20021;-58
2023/03/16 05:35:39;;;;;;;1.75;1.08;;;20.10;29.50;;;;;;5054523;28;20033;-57
2023/03/16 05:38:09;;;;;;;1.48;0.98;;;20.10;29.50;;;;;;5055102;28;20520;-56
2023/03/16 05:40:38;;;;;;;1.30;0.70;;;20.10;29.50;;;;;;5054597;28;20071;-55
2023/03/16 05:43:13;;;;;;;1.40;0.70;;;20.10;29.50;;;;;;5053416;28;20059;-56
2023/03/16 05:45:45;;;;;;;2.47;1.20;;;20.10;29.50;;;;;;5045163;28;20040;-58
2023/03/16 05:48:14;;;;;;;1.63;0.70;;;20.10;29.60;;;;;;5068867;28;20024;-55
2023/03/16 05:50:44;;;;;;;1.63;0.90;;;20.10;29.60;;;;;;5041604;28;20032;-56
2023/03/16 05:53:12;;;;;;;3.38;0.80;;;20.10;29.60;;;;;;5054408;28;20440;-57
2023/03/16 05:55:40;;;;;;;2.05;0.95;;;20.10;29.60;;;;;;5054260;28;20021;-52
2023/03/16 05:58:10;;;;;;;1.35;0.80;;;20.00;29.50;;;;;;5054201;28;20033;-57
2023/03/16 06:00:38;;;;;;;0.80;0.50;;;20.10;29.60;;;;;;5054156;28;20040;-57
2023/03/16 06:03:21;;;;;;;1.42;0.82;;;20.10;29.70;;;;;;5043369;28;20025;-56
2023/03/16 06:05:48;;;;;;;1.52;0.63;;;20.10;29.70;;;;;;5034282;28;20029;-58
2023/03/16 06:08:18;;;;;;;1.30;0.90;;;20.10;29.70;;;;;;5047926;28;20017;-53
2023/03/16 06:10:47;;;;;;;1.80;0.93;;;20.10;29.70;;;;;;5065417;28;20372;-57
2023/03/16 06:13:14;;;;;;;1.73;0.80;;;20.10;29.70;;;;;;5052295;28;20048;-58
2023/03/16 06:15:40;;;;;;;1.40;0.80;;;20.10;29.70;;;;;;5036836;28;20052;-56
2023/03/16 06:18:06;;;;;;;2.15;0.80;;;20.10;29.70;;;;;;5043326;28;20539;-53
2023/03/16 06:20:32;;;;;;;1.10;0.70;;;20.10;29.70;;;;;;5037235;28;20112;-56
2023/03/16 06:22:58;;;;;;;1.52;0.82;;;20.10;29.70;;;;;;5033877;28;20022;-55
2023/03/16 06:25:25;;;;;;;1.80;0.77;;;20.10;29.70;;;;;;5067009;28;20095;-51
2023/03/16 06:27:52;;;;;;;1.50;0.60;;;20.00;29.60;;;;;;5034305;28;20032;-55
2023/03/16 06:30:18;;;;;;;2.10;0.95;;;20.10;29.70;;;;;;5033297;28;20095;-57
2023/03/16 06:32:44;;;;;;;2.03;1.20;;;20.00;29.70;;;;;;5034108;28;20041;-55
2023/03/16 06:35:11;;;;;;;1.73;0.90;;;20.10;29.70;;;;;;5039180;28;20356;-56
2023/03/16 06:37:41;;;;;;;2.00;1.25;;;20.00;29.70;;;;;;5061441;28;20040;-56
2023/03/16 06:40:23;;;;;;;2.53;1.63;;;20.00;29.70;;;;;;5036177;28;20053;-56
2023/03/16 06:42:49;;;;;;;3.55;1.90;;;20.00;29.70;;;;;;5050410;28;20471;-57
2023/03/16 06:45:16;;;;;;;3.72;2.40;;;20.00;29.80;;;;;;5048417;28;20103;-54
2023/03/16 06:47:43;;;;;;;5.75;2.40;;;20.00;29.80;;;;;;5049577;28;20456;-56
2023/03/16 06:50:10;;;;;;;4.88;2.55;;;20.00;29.80;;;;;;5050319;28;20124;-55
2023/03/16 06:52:38;;;;;;;3.33;2.45;;;20.00;29.80;;;;;;5052048;28;20041;-53
2023/03/16 06:55:04;;;;;;;5.72;3.33;;;19.90;29.80;;;;;;5053449;28;20527;-55
2023/03/16 06:57:33;;;;;;;6.10;3.88;;;20.00;29.90;;;;;;5052944;28;20044;-57
2023/03/16 06:59:59;;;;;;;6.18;3.92;;;20.00;29.90;;;;;;5053774;28;20029;-54
2023/03/16 07:02:25;;;;;;;9.73;4.63;;;20.00;29.90;;;;;;5045000;28;20047;-55
2023/03/16 07:04:52;;;;;;;6.65;4.38;;;20.00;30.00;;;;;;5044381;28;20356;-56
2023/03/16 07:07:19;;;;;;;7.95;5.20;;;20.00;30.00;;;;;;5060334;28;20025;-56
2023/03/16 07:09:45;;;;;;;7.03;4.88;;;20.00;30.00;;;;;;5035893;28;20137;-53
2023/03/16 07:12:12;;;;;;;9.15;5.40;;;20.00;30.00;;;;;;5035651;28;20095;-57
2023/03/16 07:14:38;;;;;;;9.93;5.85;;;20.00;30.00;;;;;;5034235;28;20080;-55
2023/03/16 07:17:05;;;;;;;8.20;5.72;;;19.90;30.00;;;;;;5033371;28;20037;-51
2023/03/16 07:19:31;;;;;;;9.80;6.18;;;19.90;30.00;;;;;;5067069;28;20123;-55
2023/03/16 07:22:01;;;;;;;9.40;6.53;;;19.90;30.10;;;;;;5060464;28;20334;-56
2023/03/16 07:24:29;;;;;;;9.90;6.28;;;19.90;30.20;;;;;;5038182;28;20035;-54
2023/03/16 07:26:55;;;;;;;8.57;6.47;;;19.90;30.20;;;;;;5051962;28;20029;-53
2023/03/16 07:29:29;;;;;;;9.88;6.90;;;19.90;30.30;;;;;;5050539;28;20036;-54
2023/03/16 07:31:55;;;;;;;10.73;6.40;;;20.00;30.40;;;;;;5051875;28;20459;-54
2023/03/16 07:34:27;;;;;;;8.80;6.18;;;20.00;30.50;;;;;;5060925;28;20021;-57
2023/03/16 07:36:56;;;;;;;11.32;6.20;;;20.00;30.50;;;;;;5053281;28;20344;-55
2023/03/16 07:39:24;;;;;;;7.25;5.18;;;20.00;30.50;;;;;;5052211;28;20116;-55
2023/03/16 07:41:55;;;;;;;7.43;5.00;;;20.00;30.50;;;;;;5033133;28;20034;-58
2023/03/16 07:44:50;;;;;;;9.63;5.30;;;20.00;30.60;;;;;;5048625;28;20111;-56
2023/03/16 07:47:18;;;;;;;9.63;5.88;;;20.10;30.70;;;;;;5052742;28;20053;-55
2023/03/16 07:49:44;;;;;;;7.75;4.50;;;20.10;30.80;;;;;;5053993;28;20098;-58
2023/03/16 07:52:12;;;;;;;10.07;5.20;;;20.10;30.70;;;;;;5052025;28;20107;-54
2023/03/16 07:54:40;;;;;;;7.47;5.10;;;20.20;30.80;;;;;;5036720;28;20021;-54
2023/03/16 07:57:07;;;;;;;8.00;4.97;;;20.20;30.80;;;;;;5052876;28;20033;-57
2023/03/16 07:59:41;;;;;;;5.97;4.32;;;20.30;30.80;;;;;;5054524;28;20025;-55
2023/03/16 08:02:15;;;;;;;7.05;4.78;;;20.30;30.80;;;;;;5056361;28;20033;-54
2023/03/16 08:04:41;;;;;;;5.72;3.92;;;20.40;30.80;;;;;;5055700;28;20029;-59
2023/03/16 08:07:13;;;;;;;5.68;3.63;;;20.40;30.70;;;;;;5074659;28;20489;-55
2023/03/16 08:10:00;;;;;;;5.07;3.67;;;20.50;30.70;;;;;;5063082;28;20036;-56
2023/03/16 08:12:32;;;;;;;4.40;3.22;;;20.50;30.70;;;;;;5076004;28;20036;-56
2023/03/16 08:14:58;;;;;;;4.28;3.05;;;20.60;30.60;;;;;;5075957;28;20105;-57
2023/03/16 08:17:28;;;;;;;3.97;2.63;;;20.60;30.60;;;;;;5064027;28;20177;-57
2023/03/16 08:19:56;;;;;;;5.32;3.10;;;20.70;30.60;;;;;;5055015;28;20063;-56
2023/03/16 08:22:23;;;;;;;4.85;2.88;;;20.70;30.60;;;;;;5055251;28;20040;-58
2023/03/16 08:24:50;;;;;;;5.15;2.58;;;20.80;31.20;;;;;;5054817;28;20040;-57
2023/03/16 08:27:18;;;;;;;3.90;2.65;;;20.80;30.50;;;;;;5051845;28;20016;-58
2023/03/16 08:29:51;;;;;;;5.63;2.97;;;20.90;30.50;;;;;;5054526;28;20017;-57
2023/03/16 08:32:18;;;;;;;6.20;2.97;;;20.90;30.40;;;;;;5054136;28;20487;-55
2023/03/16 08:34:46;;;;;;;3.78;2.42;;;20.90;30.40;;;;;;5053881;28;20056;-58
2023/03/16 08:37:13;;;;;;;4.22;2.63;;;21.00;30.40;;;;;;5053178;28;20064;-53
2023/03/16 08:39:40;;;;;;;4.00;2.42;;;21.00;30.30;;;;;;5054649;28;20028;-55
2023/03/16 08:42:09;;;;;;;3.60;2.30;;;21.10;30.30;;;;;;5055877;28;20021;-54
2023/03/16 08:44:42;;;;;;;3.38;1.98;;;21.10;30.20;;;;;;5062484;28;20036;-56
2023/03/16 08:47:10;;;;;;;3.88;1.73;;;21.20;30.30;;;;;;5068111;28;20033;-58
2023/03/16 08:49:37;;;;;;;2.53;1.90;;;21.20;30.20;;;;;;5037725;28;20032;-55
2023/03/16 08:52:09;;;;;;;2.92;1.90;;;21.20;30.20;;;;;;5035212;28;20045;-57
2023/03/16 08:54:35;;;;;;;3.22;1.92;;;21.20;30.10;;;;;;5050796;28;20036;-55
2023/03/16 08:57:01;;;;;;;2.42;1.50;;;21.20;30.10;;;;;;5062371;28;20028;-55
2023/03/16 08:59:28;;;;;;;3.20;1.58;;;21.30;30.10;;;;;;5076649;28;20025;-55
2023/03/16 09:01:54;;;;;;;1.92;1.50;;;21.30;30.00;;;;;;5076523;28;20116;-56
2023/03/16 09:04:20;;;;;;;2.45;1.65;;;21.30;30.00;;;;;;5068432;28;20119;-59
2023/03/16 09:06:47;;;;;;;2.40;1.60;;;21.30;30.00;;;;;;5076346;28;20075;-55
2023/03/16 09:09:13;;;;;;;3.03;1.45;;;21.40;30.00;;;;;;5073483;28;20039;-54
2023/03/16 09:11:39;;;;;;;2.20;1.20;;;21.40;30.60;;;;;;5075656;28;20075;-58
2023/03/16 09:14:05;;;;;;;2.47;1.38;;;21.40;30.00;;;;;;5075836;28;20554;-56
2023/03/16 09:16:31;;;;;;;1.83;1.40;;;21.40;30.00;;;;;;5076159;28;20459;-56
2023/03/16 09:18:58;;;;;;;2.92;1.52;;;21.40;30.00;;;;;;5068002;28;20032;-55
2023/03/16 09:21:24;;;;;;;2.53;1.63;;;21.40;30.00;;;;;;5075865;28;20035;-54
2023/03/16 09:23:50;;;;;;;2.42;1.30;;;21.40;30.00;;;;;;5076723;28;20112;-55
2023/03/16 09:26:16;;;;;;;3.00;1.67;;;21.40;30.00;;;;;;5075494;28;20463;-57
2023/03/16 09:28:42;;;;;;;2.13;1.38;;;21.40;30.00;;;;;;5075920;28;20032;-54
2023/03/16 09:31:14;;;;;;;2.38;1.50;;;21.40;30.00;;;;;;5076048;28;20089;-55
2023/03/16 09:33:40;;;;;;;2.45;1.40;;;21.40;30.00;;;;;;5056830;28;20025;-58
2023/03/16 09:36:05;;;;;;;2.45;1.48;;;21.40;30.00;;;;;;5055944;28;20033;-56
2023/03/16 09:38:31;;;;;;;1.92;1.25;;;21.40;30.00;;;;;;5056143;28;20471;-56
2023/03/16 09:41:01;;;;;;;2.42;1.30;;;21.40;30.00;;;;;;5056112;28;20036;-58
2023/03/16 09:43:42;;;;;;;2.28;1.25;;;21.40;30.00;;;;;;5055665;28;20032;-55
2023/03/16 09:46:14;;;;;;;4.15;1.38;;;21.40;30.00;;;;;;5043056;28;20036;-57
2023/03/16 09:48:40;;;;;;;2.20;1.50;;;21.40;30.00;;;;;;5054410;28;20029;-57
2023/03/16 09:51:52;;;;;;;2.72;1.45;;;21.40;30.00;;;;;;5055930;28;20037;-57
2023/03/16 09:54:39;;;;;;;2.03;1.27;;;21.40;30.00;;;;;;5045737;28;20117;-57
2023/03/16 09:57:18;;;;;;;2.88;1.50;;;21.40;30.00;;;;;;5054329;28;20037;-55
2023/03/16 09:59:44;;;;;;;2.55;1.67;;;21.40;30.10;;;;;;5055251;28;20032;-54
2023/03/16 10:02:18;;;;;;;2.70;1.55;;;21.30;30.00;;;;;;5053636;28;20037;-56
2023/03/16 10:04:59;;;;;;;2.45;1.30;;;21.30;30.10;;;;;;5059697;28;20035;-55
2023/03/16 10:07:34;;;;;;;1.63;1.13;;;21.40;30.10;;;;;;5074418;28;20060;-55
2023/03/16 10:10:25;;;;;;;2.25;1.38;;;21.30;30.10;;;;;;5058666;28;20016;-56
2023/03/16 10:12:53;;;;;;;2.10;1.40;;;21.30;30.20;;;;;;5064249;28;20056;-56
2023/03/16 10:15:26;;;;;;;2.10;1.38;;;21.30;30.20;;;;;;5075293;28;20053;-57
2023/03/16 10:18:00;;;;;;;2.13;1.50;;;21.30;30.20;;;;;;5070979;28;20021;-55
2023/03/16 10:20:32;;;;;;;2.20;1.40;;;21.30;30.20;;;;;;5074622;28;20447;-56
2023/03/16 10:23:00;;;;;;;4.50;1.65;;;21.30;30.20;;;;;;5073966;28;20020;-58
2023/03/16 10:25:48;;;;;;;2.10;1.20;;;21.30;30.30;;;;;;5075004;28;20038;-53
2023/03/16 10:28:17;;;;;;;3.30;1.60;;;21.30;30.30;;;;;;5074874;28;20036;-56
2023/03/16 10:30:44;;;;;;;2.67;1.45;;;21.30;30.30;;;;;;5074757;28;20102;-55
2023/03/16 10:33:24;;;;;;;2.28;1.23;;;21.30;30.30;;;;;;5063248;28;20057;-53
2023/03/16 10:36:12;;;;;;;1.73;1.20;;;21.30;30.30;;;;;;5054825;28;20075;-56
2023/03/16 10:38:54;;;;;;;2.40;1.35;;;21.30;30.30;;;;;;5050250;28;20025;-58
2023/03/16 10:41:31;;;;;;;2.88;1.40;;;21.30;30.30;;;;;;5043384;28;20029;-57
2023/03/16 10:44:06;;;;;;;1.88;1.08;;;21.30;30.30;;;;;;5050126;28;20016;-57
2023/03/16 10:47:00;;;;;;;4.72;1.70;;;21.30;30.40;;;;;;5044341;28;20033;-54
2023/03/16 10:49:43;;;;;;;3.00;1.40;;;21.30;30.40;;;;;;5038141;28;20426;-53
2023/03/16 10:52:30;;;;;;;1.98;1.17;;;21.30;30.40;;;;;;5045229;28;20029;-54
2023/03/16 10:54:59;;;;;;;2.13;1.23;;;21.30;30.50;;;;;;5042628;28;20048;-55
2023/03/16 10:57:34;;;;;;;2.50;1.30;;;21.30;30.50;;;;;;5046162;28;20079;-58
2023/03/16 11:00:21;;;;;;;2.20;1.58;;;21.30;30.60;;;;;;5060633;28;20074;-60
2023/03/16 11:02:49;;;;;;;2.78;1.70;;;21.30;30.70;;;;;;5035766;28;20454;-56
2023/03/16 11:05:25;;;;;;;2.85;1.50;;;21.30;30.70;;;;;;5037844;28;20033;-57
2023/03/16 11:08:13;;;;;;;2.25;1.30;;;21.30;30.70;;;;;;5039215;28;20044;-56
2023/03/16 11:10:46;;;;;;;2.83;1.90;;;21.40;30.80;;;;;;5044517;28;20033;-56
2023/03/16 11:13:18;;;;;;;3.00;2.00;;;21.40;30.90;;;;;;5043286;28;20330;-52
2023/03/16 11:15:56;;;;;;;3.00;1.83;;;21.40;31.00;;;;;;5039822;28;20041;-56
2023/03/16 11:18:38;;;;;;;2.53;1.70;;;21.40;31.10;;;;;;5036509;28;20399;-57
2023/03/16 11:21:17;;;;;;;2.65;1.77;;;21.40;31.10;;;;;;5038833;28;20069;-57
2023/03/16 11:23:48;;;;;;;3.30;1.60;;;21.40;31.20;;;;;;5048488;28;20359;-58
2023/03/16 11:26:26;;;;;;;2.30;1.70;;;21.40;31.20;;;;;;5049047;28;20095;-52
2023/03/16 11:29:01;;;;;;;3.10;1.83;;;21.40;31.20;;;;;;5044539;28;20021;-55
2023/03/16 11:31:52;;;;;;;;;;;21.40;31.20;;;;;;5048639;28;20045;-54
2023/03/16 11:34:26;;;;;;;3.28;1.80;;;21.40;31.20;;;;;;5039674;28;20344;-56
2023/03/16 11:37:39;;;;;;;2.47;1.45;;;21.40;31.20;;;;;;5042264;28;20021;-54
2023/03/16 11:40:32;;;;;;;3.40;1.63;;;21.40;31.30;;;;;;5029245;28;20041;-56
2023/03/16 11:43:42;;;;;;;3.20;1.88;;;21.50;31.30;;;;;;5043368;28;20047;-58
2023/03/16 11:46:36;;;;;;;2.95;1.40;;;21.40;31.30;;;;;;5045186;28;20049;-58
2023/03/16 11:49:27;;;;;;;2.55;1.20;;;21.50;31.40;;;;;;5038125;28;20064;-58
2023/03/16 11:52:13;;;;;;;3.70;1.38;;;21.40;31.40;;;;;;5047226;28;20052;-63
2023/03/16 11:55:05;;;;;;;2.92;1.63;;;21.50;31.50;;;;;;5043526;28;20040;-57
2023/03/16 11:58:01;;;;;;;4.28;1.50;;;21.50;31.60;;;;;;5051269;28;20116;-59
2023/03/16 12:00:51;;;;;;;4.55;1.83;;;21.50;31.60;;;;;;5042843;28;20029;-55
2023/03/16 12:03:52;;;;;;;3.15;1.52;;;21.50;31.70;;;;;;5047265;28;20403;-58
2023/03/16 12:06:40;;;;;;;3.25;1.60;;;21.50;31.70;;;;;;5042827;28;20032;-57
2023/03/16 12:09:27;;;;;;;3.22;1.65;;;21.50;31.70;;;;;;5044511;28;20040;-56
2023/03/16 12:12:18;;;;;;;2.33;1.27;;;21.60;31.80;;;;;;5038388;28;20052;-57
2023/03/16 12:14:57;;;;;;;2.75;1.50;;;21.60;31.60;;;;;;5044065;28;20033;-55
2023/03/16 12:17:29;;;;;;;2.00;1.30;;;21.60;31.50;;;;;;5045557;28;20044;-54
2023/03/16 12:20:19;;;;;;;2.45;1.40;;;21.60;31.50;;;;;;5045018;28;20025;-59
2023/03/16 12:22:52;;;;;;;3.22;1.30;;;21.60;31.30;;;;;;5042155;28;20047;-58
2023/03/16 12:25:31;;;;;;;3.10;1.43;;;21.60;31.30;;;;;;5053655;28;20033;-58
2023/03/16 12:28:01;;;;;;;2.38;1.38;;;21.60;31.30;;;;;;5054785;28;20423;-57
2023/03/16 12:30:54;;;;;;;2.17;1.20;;;21.60;31.20;;;;;;5055170;28;20037;-57
2023/03/16 12:33:31;;;;;;;3.30;1.30;;;21.60;31.20;;;;;;5054566;28;20025;-56
2023/03/16 12:36:18;;;;;;;1.90;1.10;;;21.70;31.20;;;;;;5054073;28;20464;-57
2023/03/16 12:38:52;;;;;;;1.45;1.05;;;21.70;31.10;;;;;;5051713;28;20033;-58
2023/03/16 12:41:18;;;;;;;2.80;1.13;;;21.70;31.10;;;;;;5054512;28;20025;-58
2023/03/16 12:43:50;;;;;;;1.70;0.90;;;21.70;31.10;;;;;;5054837;28;20375;-61
2023/03/16 12:46:27;;;;;;;2.08;1.27;;;21.70;31.10;;;;;;5034732;28;20043;-64
2023/03/16 12:48:59;;;;;;;2.72;1.00;;;21.70;31.20;;;;;;5053482;28;20352;-61
2023/03/16 12:51:40;;;;;;;2.88;1.38;;;21.70;31.20;;;;;;5055073;28;20102;-62
2023/03/16 12:54:21;;;;;;;1.67;1.00;;;21.80;31.20;;;;;;5053986;28;20372;-61
2023/03/16 12:56:49;;;;;;;2.70;1.20;;;21.80;31.10;;;;;;5052509;28;20055;-55
2023/03/16 12:59:18;;;;;;;2.10;1.13;;;21.90;31.10;;;;;;5053515;28;20029;-60
2023/03/16 13:01:48;;;;;;;2.65;1.40;;;22.00;31.00;;;;;;5054443;28;20029;-54
2023/03/16 13:04:29;;;;;;;1.90;1.17;;;22.10;30.90;;;;;;5053142;28;20604;-60
2023/03/16 13:07:09;;;;;;;2.03;1.10;;;22.20;30.80;;;;;;5053262;28;20029;-60
2023/03/16 13:09:41;;;;;;;2.70;1.30;;;22.30;30.70;;;;;;5049061;28;20033;-59
2023/03/16 13:12:09;;;;;;;2.67;1.27;;;22.40;30.60;;;;;;5054039;28;20116;-56